sensor_id;sensor_type;location;lat;lon;timestamp;P1;durP1;ratioP1;P2;durP2;ratioP2
751;SDS011;360;48.764;9.164;2023-05-23T00:00:29;14.90;;;8.30;;
751;SDS011;360;48.764;9.164;2023-05-23T00:02:57;13.83;;;7.90;;
751;SDS011;360;48.764;9.164;2023-05-23T00:05:26;12.83;;;8.30;;
751;SDS011;360;48.764;9.164;2023-05-23T00:07:53;15.00;;;10.00;;
751;SDS011;360;48.764;9.164;2023-05-23T00:10:20;14.80;;;9.63;;
751;SDS011;360;48.764;9.164;2023-05-23T00:12:47;14.97;;;9.10;;
751;SDS011;360;48.764;9.164;2023-05-23T00:15:14;12.03;;;8.50;;
751;SDS011;360;48.764;9.164;2023-05-23T00:17:41;15.77;;;9.20;;
751;SDS011;360;48.764;9.164;2023-05-23T00:20:09;17.83;;;10.90;;
751;SDS011;360;48.764;9.164;2023-05-23T00:22:37;17.90;;;9.63;;
751;SDS011;360;48.764;9.164;2023-05-23T00:25:07;18.50;;;10.37;;
751;SDS011;360;48.764;9.164;2023-05-23T00:27:34;20.00;;;12.07;;
751;SDS011;360;48.764;9.164;2023-05-23T00:30:01;12.70;;;9.70;;
751;SDS011;360;48.764;9.164;2023-05-23T00:32:27;21.43;;;10.67;;
751;SDS011;360;48.764;9.164;2023-05-23T00:34:54;19.40;;;11.53;;
751;SDS011;360;48.764;9.164;2023-05-23T00:37:22;18.03;;;10.60;;
751;SDS011;360;48.764;9.164;2023-05-23T00:39:50;13.37;;;8.20;;
751;SDS011;360;48.764;9.164;2023-05-23T00:42:17;18.07;;;12.03;;
751;SDS011;360;48.764;9.164;2023-05-23T00:44:44;17.10;;;10.63;;
751;SDS011;360;48.764;9.164;2023-05-23T00:47:12;18.90;;;10.80;;
751;SDS011;360;48.764;9.164;2023-05-23T00:49:39;19.83;;;11.13;;
751;SDS011;360;48.764;9.164;2023-05-23T00:52:06;17.27;;;11.40;;
751;SDS011;360;48.764;9.164;2023-05-23T00:54:33;21.70;;;12.63;;
751;SDS011;360;48.764;9.164;2023-05-23T00:57:03;17.37;;;10.57;;
751;SDS011;360;48.764;9.164;2023-05-23T00:59:30;24.57;;;12.40;;
751;SDS011;360;48.764;9.164;2023-05-23T01:01:58;21.70;;;13.23;;
751;SDS011;360;48.764;9.164;2023-05-23T01:04:26;19.30;;;13.10;;
751;SDS011;360;48.764;9.164;2023-05-23T01:06:53;20.33;;;11.40;;
751;SDS011;360;48.764;9.164;2023-05-23T01:09:20;26.77;;;12.97;;
751;SDS011;360;48.764;9.164;2023-05-23T01:11:49;18.17;;;11.33;;
751;SDS011;360;48.764;9.164;2023-05-23T01:14:27;21.57;;;12.40;;
751;SDS011;360;48.764;9.164;2023-05-23T01:17:02;23.27;;;11.80;;
751;SDS011;360;48.764;9.164;2023-05-23T01:19:44;20.03;;;11.07;;
751;SDS011;360;48.764;9.164;2023-05-23T01:22:22;23.20;;;13.87;;
751;SDS011;360;48.764;9.164;2023-05-23T01:25:00;24.00;;;12.90;;
751;SDS011;360;48.764;9.164;2023-05-23T01:27:41;23.17;;;12.70;;
751;SDS011;360;48.764;9.164;2023-05-23T01:30:14;23.97;;;12.53;;
751;SDS011;360;48.764;9.164;2023-05-23T01:32:44;22.60;;;13.40;;
751;SDS011;360;48.764;9.164;2023-05-23T01:35:13;20.30;;;12.87;;
751;SDS011;360;48.764;9.164;2023-05-23T01:37:44;23.57;;;12.77;;
751;SDS011;360;48.764;9.164;2023-05-23T01:40:11;26.40;;;13.60;;
751;SDS011;360;48.764;9.164;2023-05-23T01:42:38;21.63;;;12.53;;
751;SDS011;360;48.764;9.164;2023-05-23T01:45:07;26.07;;;16.27;;
751;SDS011;360;48.764;9.164;2023-05-23T01:47:35;22.67;;;12.17;;
751;SDS011;360;48.764;9.164;2023-05-23T01:50:03;26.97;;;13.97;;
751;SDS011;360;48.764;9.164;2023-05-23T01:52:32;27.10;;;14.33;;
751;SDS011;360;48.764;9.164;2023-05-23T01:54:59;28.70;;;13.27;;
751;SDS011;360;48.764;9.164;2023-05-23T01:57:27;28.37;;;15.60;;
751;SDS011;360;48.764;9.164;2023-05-23T01:59:55;22.37;;;14.70;;
751;SDS011;360;48.764;9.164;2023-05-23T02:02:23;27.40;;;16.00;;
751;SDS011;360;48.764;9.164;2023-05-23T02:04:50;24.37;;;13.47;;
751;SDS011;360;48.764;9.164;2023-05-23T02:07:18;28.57;;;15.77;;
751;SDS011;360;48.764;9.164;2023-05-23T02:09:47;27.63;;;15.20;;
751;SDS011;360;48.764;9.164;2023-05-23T02:12:14;24.63;;;15.50;;
751;SDS011;360;48.764;9.164;2023-05-23T02:14:40;26.90;;;15.17;;
751;SDS011;360;48.764;9.164;2023-05-23T02:17:07;24.47;;;15.50;;
751;SDS011;360;48.764;9.164;2023-05-23T02:19:36;27.03;;;15.70;;
751;SDS011;360;48.764;9.164;2023-05-23T02:22:03;26.47;;;13.57;;
751;SDS011;360;48.764;9.164;2023-05-23T02:24:30;27.03;;;15.40;;
751;SDS011;360;48.764;9.164;2023-05-23T02:26:57;26.63;;;15.43;;
751;SDS011;360;48.764;9.164;2023-05-23T02:29:24;26.63;;;15.70;;
751;SDS011;360;48.764;9.164;2023-05-23T02:31:50;28.80;;;15.53;;
751;SDS011;360;48.764;9.164;2023-05-23T02:34:17;27.43;;;14.97;;
751;SDS011;360;48.764;9.164;2023-05-23T02:36:45;24.50;;;14.40;;
751;SDS011;360;48.764;9.164;2023-05-23T02:39:12;27.33;;;14.40;;
751;SDS011;360;48.764;9.164;2023-05-23T02:41:39;26.07;;;14.83;;
751;SDS011;360;48.764;9.164;2023-05-23T02:44:06;27.20;;;15.07;;
751;SDS011;360;48.764;9.164;2023-05-23T02:46:33;23.10;;;13.60;;
751;SDS011;360;48.764;9.164;2023-05-23T02:49:00;25.87;;;13.77;;
751;SDS011;360;48.764;9.164;2023-05-23T02:51:26;21.20;;;12.97;;
751;SDS011;360;48.764;9.164;2023-05-23T02:53:55;26.80;;;14.77;;
751;SDS011;360;48.764;9.164;2023-05-23T02:56:21;26.17;;;15.67;;
751;SDS011;360;48.764;9.164;2023-05-23T02:58:48;27.13;;;15.30;;
751;SDS011;360;48.764;9.164;2023-05-23T03:01:16;28.00;;;15.23;;
751;SDS011;360;48.764;9.164;2023-05-23T03:03:43;26.60;;;15.93;;
751;SDS011;360;48.764;9.164;2023-05-23T03:06:10;27.30;;;13.60;;
751;SDS011;360;48.764;9.164;2023-05-23T03:08:38;20.23;;;13.23;;
751;SDS011;360;48.764;9.164;2023-05-23T03:11:06;26.30;;;14.40;;
751;SDS011;360;48.764;9.164;2023-05-23T03:13:33;22.23;;;14.73;;
751;SDS011;360;48.764;9.164;2023-05-23T03:16:00;22.80;;;14.67;;
751;SDS011;360;48.764;9.164;2023-05-23T03:18:27;29.43;;;14.93;;
751;SDS011;360;48.764;9.164;2023-05-23T03:20:54;21.40;;;14.40;;
751;SDS011;360;48.764;9.164;2023-05-23T03:23:21;24.00;;;13.23;;
751;SDS011;360;48.764;9.164;2023-05-23T03:25:48;23.87;;;16.70;;
751;SDS011;360;48.764;9.164;2023-05-23T03:28:16;22.33;;;13.70;;
751;SDS011;360;48.764;9.164;2023-05-23T03:30:43;24.63;;;15.07;;
751;SDS011;360;48.764;9.164;2023-05-23T03:33:09;24.53;;;15.80;;
751;SDS011;360;48.764;9.164;2023-05-23T03:35:36;32.43;;;14.70;;
751;SDS011;360;48.764;9.164;2023-05-23T03:38:03;20.00;;;14.07;;
751;SDS011;360;48.764;9.164;2023-05-23T03:40:30;28.53;;;16.10;;
751;SDS011;360;48.764;9.164;2023-05-23T03:43:00;23.80;;;14.17;;
751;SDS011;360;48.764;9.164;2023-05-23T03:45:30;22.57;;;12.70;;
751;SDS011;360;48.764;9.164;2023-05-23T03:47:57;25.83;;;15.80;;
751;SDS011;360;48.764;9.164;2023-05-23T03:50:24;25.27;;;14.63;;
751;SDS011;360;48.764;9.164;2023-05-23T03:52:51;19.63;;;11.73;;
751;SDS011;360;48.764;9.164;2023-05-23T03:55:19;20.50;;;14.33;;
751;SDS011;360;48.764;9.164;2023-05-23T03:57:48;25.20;;;15.33;;
751;SDS011;360;48.764;9.164;2023-05-23T04:00:15;22.80;;;14.50;;
751;SDS011;360;48.764;9.164;2023-05-23T04:02:44;23.43;;;12.97;;
751;SDS011;360;48.764;9.164;2023-05-23T04:05:11;30.37;;;16.70;;
751;SDS011;360;48.764;9.164;2023-05-23T04:07:38;24.60;;;15.23;;
751;SDS011;360;48.764;9.164;2023-05-23T04:10:06;20.90;;;13.60;;
751;SDS011;360;48.764;9.164;2023-05-23T04:12:33;21.50;;;12.60;;
751;SDS011;360;48.764;9.164;2023-05-23T04:15:00;21.03;;;13.50;;
751;SDS011;360;48.764;9.164;2023-05-23T04:17:27;27.77;;;14.60;;
751;SDS011;360;48.764;9.164;2023-05-23T04:19:56;19.87;;;12.33;;
751;SDS011;360;48.764;9.164;2023-05-23T04:22:23;24.00;;;13.13;;
751;SDS011;360;48.764;9.164;2023-05-23T04:24:50;18.50;;;11.37;;
751;SDS011;360;48.764;9.164;2023-05-23T04:27:17;25.40;;;13.20;;
751;SDS011;360;48.764;9.164;2023-05-23T04:29:44;20.40;;;12.70;;
751;SDS011;360;48.764;9.164;2023-05-23T04:32:11;18.47;;;12.33;;
751;SDS011;360;48.764;9.164;2023-05-23T04:34:38;22.63;;;13.97;;
751;SDS011;360;48.764;9.164;2023-05-23T04:37:07;23.10;;;12.43;;
751;SDS011;360;48.764;9.164;2023-05-23T04:39:34;18.90;;;11.47;;
751;SDS011;360;48.764;9.164;2023-05-23T04:42:02;21.13;;;13.93;;
751;SDS011;360;48.764;9.164;2023-05-23T04:44:31;19.20;;;12.23;;
751;SDS011;360;48.764;9.164;2023-05-23T04:46:58;18.67;;;12.10;;
751;SDS011;360;48.764;9.164;2023-05-23T04:49:27;18.77;;;12.60;;
751;SDS011;360;48.764;9.164;2023-05-23T04:51:53;19.57;;;12.60;;
751;SDS011;360;48.764;9.164;2023-05-23T04:54:21;20.73;;;13.60;;
751;SDS011;360;48.764;9.164;2023-05-23T04:56:49;23.70;;;12.53;;
751;SDS011;360;48.764;9.164;2023-05-23T04:59:15;25.37;;;13.60;;
751;SDS011;360;48.764;9.164;2023-05-23T05:01:42;19.27;;;12.77;;
751;SDS011;360;48.764;9.164;2023-05-23T05:04:09;21.70;;;12.60;;
751;SDS011;360;48.764;9.164;2023-05-23T05:06:36;20.90;;;15.53;;
751;SDS011;360;48.764;9.164;2023-05-23T05:09:03;20.57;;;12.47;;
751;SDS011;360;48.764;9.164;2023-05-23T05:11:31;19.30;;;12.00;;
751;SDS011;360;48.764;9.164;2023-05-23T05:13:58;20.90;;;13.00;;
751;SDS011;360;48.764;9.164;2023-05-23T05:16:24;20.17;;;12.17;;
751;SDS011;360;48.764;9.164;2023-05-23T05:18:52;18.87;;;12.27;;
751;SDS011;360;48.764;9.164;2023-05-23T05:21:19;21.53;;;12.70;;
751;SDS011;360;48.764;9.164;2023-05-23T05:23:46;20.20;;;12.33;;
751;SDS011;360;48.764;9.164;2023-05-23T05:26:13;16.57;;;12.07;;
751;SDS011;360;48.764;9.164;2023-05-23T05:28:41;18.17;;;12.17;;
751;SDS011;360;48.764;9.164;2023-05-23T05:31:08;20.43;;;12.80;;
751;SDS011;360;48.764;9.164;2023-05-23T05:33:39;22.23;;;12.40;;
751;SDS011;360;48.764;9.164;2023-05-23T05:36:09;20.17;;;12.80;;
751;SDS011;360;48.764;9.164;2023-05-23T05:38:37;21.10;;;13.10;;
751;SDS011;360;48.764;9.164;2023-05-23T05:41:04;17.37;;;11.67;;
751;SDS011;360;48.764;9.164;2023-05-23T05:43:30;17.67;;;13.40;;
751;SDS011;360;48.764;9.164;2023-05-23T05:45:59;19.10;;;12.70;;
751;SDS011;360;48.764;9.164;2023-05-23T05:48:25;16.20;;;12.57;;
751;SDS011;360;48.764;9.164;2023-05-23T05:50:52;20.50;;;14.00;;
751;SDS011;360;48.764;9.164;2023-05-23T05:53:19;19.00;;;12.63;;
751;SDS011;360;48.764;9.164;2023-05-23T05:55:46;20.43;;;12.90;;
751;SDS011;360;48.764;9.164;2023-05-23T05:58:12;19.30;;;12.20;;
751;SDS011;360;48.764;9.164;2023-05-23T06:00:39;20.77;;;12.57;;
751;SDS011;360;48.764;9.164;2023-05-23T06:03:08;15.80;;;10.93;;
751;SDS011;360;48.764;9.164;2023-05-23T06:05:36;20.03;;;12.77;;
751;SDS011;360;48.764;9.164;2023-05-23T06:08:04;18.73;;;11.07;;
751;SDS011;360;48.764;9.164;2023-05-23T06:10:31;17.87;;;11.30;;
751;SDS011;360;48.764;9.164;2023-05-23T06:12:58;17.80;;;11.30;;
751;SDS011;360;48.764;9.164;2023-05-23T06:15:25;20.10;;;13.03;;
751;SDS011;360;48.764;9.164;2023-05-23T06:17:52;17.83;;;12.17;;
751;SDS011;360;48.764;9.164;2023-05-23T06:20:20;17.73;;;12.27;;
751;SDS011;360;48.764;9.164;2023-05-23T06:22:47;20.00;;;13.23;;
751;SDS011;360;48.764;9.164;2023-05-23T06:25:14;21.10;;;13.77;;
751;SDS011;360;48.764;9.164;2023-05-23T06:27:40;17.73;;;12.57;;
751;SDS011;360;48.764;9.164;2023-05-23T06:30:09;21.27;;;13.13;;
751;SDS011;360;48.764;9.164;2023-05-23T06:32:36;19.30;;;12.77;;
751;SDS011;360;48.764;9.164;2023-05-23T06:35:03;17.23;;;12.17;;
751;SDS011;360;48.764;9.164;2023-05-23T06:37:32;20.93;;;12.40;;
751;SDS011;360;48.764;9.164;2023-05-23T06:39:59;18.70;;;12.87;;
751;SDS011;360;48.764;9.164;2023-05-23T06:42:26;18.80;;;12.90;;
751;SDS011;360;48.764;9.164;2023-05-23T06:44:53;18.00;;;11.93;;
751;SDS011;360;48.764;9.164;2023-05-23T06:47:20;20.70;;;12.47;;
751;SDS011;360;48.764;9.164;2023-05-23T06:49:47;18.83;;;12.40;;
751;SDS011;360;48.764;9.164;2023-05-23T06:52:14;16.20;;;9.80;;
751;SDS011;360;48.764;9.164;2023-05-23T06:54:42;17.93;;;10.93;;
751;SDS011;360;48.764;9.164;2023-05-23T06:57:09;15.73;;;11.17;;
751;SDS011;360;48.764;9.164;2023-05-23T06:59:36;15.53;;;10.67;;
751;SDS011;360;48.764;9.164;2023-05-23T07:02:02;17.87;;;10.87;;
751;SDS011;360;48.764;9.164;2023-05-23T07:04:29;16.00;;;11.27;;
751;SDS011;360;48.764;9.164;2023-05-23T07:06:56;16.30;;;11.63;;
751;SDS011;360;48.764;9.164;2023-05-23T07:09:23;17.70;;;11.40;;
751;SDS011;360;48.764;9.164;2023-05-23T07:11:51;16.17;;;11.53;;
751;SDS011;360;48.764;9.164;2023-05-23T07:14:18;19.87;;;12.47;;
751;SDS011;360;48.764;9.164;2023-05-23T07:16:45;19.17;;;12.00;;
751;SDS011;360;48.764;9.164;2023-05-23T07:19:12;18.73;;;11.60;;
751;SDS011;360;48.764;9.164;2023-05-23T07:21:38;16.10;;;10.27;;
751;SDS011;360;48.764;9.164;2023-05-23T07:24:05;16.97;;;9.97;;
751;SDS011;360;48.764;9.164;2023-05-23T07:26:32;14.57;;;10.83;;
751;SDS011;360;48.764;9.164;2023-05-23T07:29:00;13.17;;;10.43;;
751;SDS011;360;48.764;9.164;2023-05-23T07:31:27;15.50;;;10.23;;
751;SDS011;360;48.764;9.164;2023-05-23T07:33:54;14.77;;;9.57;;
751;SDS011;360;48.764;9.164;2023-05-23T07:36:21;15.77;;;9.93;;
751;SDS011;360;48.764;9.164;2023-05-23T07:38:47;12.60;;;9.17;;
751;SDS011;360;48.764;9.164;2023-05-23T07:41:14;13.53;;;10.23;;
751;SDS011;360;48.764;9.164;2023-05-23T07:43:41;18.73;;;10.33;;
751;SDS011;360;48.764;9.164;2023-05-23T07:46:09;15.90;;;11.60;;
751;SDS011;360;48.764;9.164;2023-05-23T07:48:36;16.83;;;11.77;;
751;SDS011;360;48.764;9.164;2023-05-23T07:51:03;15.73;;;11.60;;
751;SDS011;360;48.764;9.164;2023-05-23T07:53:30;17.87;;;11.23;;
751;SDS011;360;48.764;9.164;2023-05-23T07:55:56;15.60;;;10.87;;
751;SDS011;360;48.764;9.164;2023-05-23T07:58:23;13.47;;;10.70;;
751;SDS011;360;48.764;9.164;2023-05-23T08:00:50;13.17;;;10.53;;
751;SDS011;360;48.764;9.164;2023-05-23T08:03:18;12.60;;;8.40;;
751;SDS011;360;48.764;9.164;2023-05-23T08:05:45;14.23;;;8.87;;
751;SDS011;360;48.764;9.164;2023-05-23T08:08:12;16.47;;;10.37;;
751;SDS011;360;48.764;9.164;2023-05-23T08:10:40;11.10;;;7.40;;
751;SDS011;360;48.764;9.164;2023-05-23T08:13:08;12.80;;;8.57;;
751;SDS011;360;48.764;9.164;2023-05-23T08:15:35;10.93;;;7.97;;
751;SDS011;360;48.764;9.164;2023-05-23T08:18:02;11.90;;;8.67;;
751;SDS011;360;48.764;9.164;2023-05-23T08:20:31;11.43;;;8.17;;
751;SDS011;360;48.764;9.164;2023-05-23T08:22:58;10.87;;;7.73;;
751;SDS011;360;48.764;9.164;2023-05-23T08:25:25;11.60;;;8.30;;
751;SDS011;360;48.764;9.164;2023-05-23T08:27:54;13.10;;;9.10;;
751;SDS011;360;48.764;9.164;2023-05-23T08:30:21;12.43;;;8.40;;
751;SDS011;360;48.764;9.164;2023-05-23T08:32:49;10.17;;;7.63;;
751;SDS011;360;48.764;9.164;2023-05-23T08:35:16;10.90;;;7.07;;
751;SDS011;360;48.764;9.164;2023-05-23T08:37:45;10.00;;;7.37;;
751;SDS011;360;48.764;9.164;2023-05-23T08:40:12;11.00;;;8.37;;
751;SDS011;360;48.764;9.164;2023-05-23T08:42:43;9.73;;;6.53;;
751;SDS011;360;48.764;9.164;2023-05-23T08:45:10;8.87;;;6.87;;
751;SDS011;360;48.764;9.164;2023-05-23T08:47:37;11.93;;;7.03;;
751;SDS011;360;48.764;9.164;2023-05-23T08:50:04;14.27;;;8.53;;
751;SDS011;360;48.764;9.164;2023-05-23T08:52:32;13.30;;;7.83;;
751;SDS011;360;48.764;9.164;2023-05-23T08:55:01;10.30;;;6.63;;
751;SDS011;360;48.764;9.164;2023-05-23T08:57:30;11.17;;;7.50;;
751;SDS011;360;48.764;9.164;2023-05-23T08:59:57;9.07;;;6.57;;
751;SDS011;360;48.764;9.164;2023-05-23T09:02:25;11.67;;;6.93;;
751;SDS011;360;48.764;9.164;2023-05-23T09:04:52;9.50;;;7.27;;
751;SDS011;360;48.764;9.164;2023-05-23T09:07:19;8.73;;;6.80;;
751;SDS011;360;48.764;9.164;2023-05-23T09:09:47;7.90;;;6.83;;
751;SDS011;360;48.764;9.164;2023-05-23T09:12:15;10.43;;;6.57;;
751;SDS011;360;48.764;9.164;2023-05-23T09:14:42;10.13;;;6.53;;
751;SDS011;360;48.764;9.164;2023-05-23T09:17:14;9.20;;;5.87;;
751;SDS011;360;48.764;9.164;2023-05-23T09:19:41;11.33;;;6.80;;
751;SDS011;360;48.764;9.164;2023-05-23T09:22:10;9.27;;;7.20;;
751;SDS011;360;48.764;9.164;2023-05-23T09:24:37;9.77;;;6.37;;
751;SDS011;360;48.764;9.164;2023-05-23T09:27:05;9.13;;;6.20;;
751;SDS011;360;48.764;9.164;2023-05-23T09:29:37;9.57;;;6.57;;
751;SDS011;360;48.764;9.164;2023-05-23T09:32:11;7.83;;;6.20;;
751;SDS011;360;48.764;9.164;2023-05-23T09:34:41;10.00;;;6.20;;
751;SDS011;360;48.764;9.164;2023-05-23T09:37:10;8.57;;;5.30;;
751;SDS011;360;48.764;9.164;2023-05-23T09:39:44;7.90;;;6.23;;
751;SDS011;360;48.764;9.164;2023-05-23T09:42:11;11.10;;;6.60;;
751;SDS011;360;48.764;9.164;2023-05-23T09:44:41;8.03;;;6.57;;
751;SDS011;360;48.764;9.164;2023-05-23T09:47:09;9.93;;;6.07;;
751;SDS011;360;48.764;9.164;2023-05-23T09:49:37;6.30;;;4.87;;
751;SDS011;360;48.764;9.164;2023-05-23T09:52:05;10.50;;;6.73;;
751;SDS011;360;48.764;9.164;2023-05-23T09:54:32;7.17;;;6.07;;
751;SDS011;360;48.764;9.164;2023-05-23T09:56:59;6.30;;;4.80;;
751;SDS011;360;48.764;9.164;2023-05-23T09:59:28;8.70;;;4.93;;
751;SDS011;360;48.764;9.164;2023-05-23T10:01:58;7.37;;;5.00;;
751;SDS011;360;48.764;9.164;2023-05-23T10:04:29;6.93;;;4.77;;
751;SDS011;360;48.764;9.164;2023-05-23T10:06:59;6.83;;;5.20;;
751;SDS011;360;48.764;9.164;2023-05-23T10:09:32;6.40;;;4.67;;
751;SDS011;360;48.764;9.164;2023-05-23T10:15:04;5.67;;;5.07;;
751;SDS011;360;48.764;9.164;2023-05-23T10:17:38;9.00;;;4.83;;
751;SDS011;360;48.764;9.164;2023-05-23T10:20:13;7.50;;;4.30;;
751;SDS011;360;48.764;9.164;2023-05-23T10:22:41;7.10;;;4.97;;
751;SDS011;360;48.764;9.164;2023-05-23T10:25:08;6.90;;;4.90;;
751;SDS011;360;48.764;9.164;2023-05-23T10:27:35;5.63;;;4.70;;
751;SDS011;360;48.764;9.164;2023-05-23T10:30:04;6.90;;;4.50;;
751;SDS011;360;48.764;9.164;2023-05-23T10:32:32;7.20;;;4.93;;
751;SDS011;360;48.764;9.164;2023-05-23T10:35:03;6.07;;;4.53;;
751;SDS011;360;48.764;9.164;2023-05-23T10:37:37;4.30;;;3.70;;
751;SDS011;360;48.764;9.164;2023-05-23T10:40:10;5.70;;;4.67;;
751;SDS011;360;48.764;9.164;2023-05-23T10:42:48;7.57;;;4.93;;
751;SDS011;360;48.764;9.164;2023-05-23T10:45:20;7.63;;;4.20;;
751;SDS011;360;48.764;9.164;2023-05-23T10:47:47;5.50;;;3.80;;
751;SDS011;360;48.764;9.164;2023-05-23T10:50:29;5.73;;;3.87;;
751;SDS011;360;48.764;9.164;2023-05-23T10:52:58;5.73;;;3.63;;
751;SDS011;360;48.764;9.164;2023-05-23T10:55:25;5.43;;;3.60;;
751;SDS011;360;48.764;9.164;2023-05-23T10:58:09;4.13;;;3.60;;
751;SDS011;360;48.764;9.164;2023-05-23T11:00:38;5.43;;;4.43;;
751;SDS011;360;48.764;9.164;2023-05-23T11:03:05;6.13;;;4.17;;
751;SDS011;360;48.764;9.164;2023-05-23T11:05:35;5.00;;;3.83;;
751;SDS011;360;48.764;9.164;2023-05-23T11:08:08;4.40;;;3.73;;
751;SDS011;360;48.764;9.164;2023-05-23T11:10:51;6.37;;;4.37;;
751;SDS011;360;48.764;9.164;2023-05-23T11:13:19;6.63;;;4.03;;
751;SDS011;360;48.764;9.164;2023-05-23T11:15:46;6.80;;;4.40;;
751;SDS011;360;48.764;9.164;2023-05-23T11:18:21;6.40;;;4.10;;
751;SDS011;360;48.764;9.164;2023-05-23T11:20:52;5.50;;;3.50;;
751;SDS011;360;48.764;9.164;2023-05-23T11:23:20;7.20;;;4.33;;
751;SDS011;360;48.764;9.164;2023-05-23T11:25:47;4.83;;;4.20;;
751;SDS011;360;48.764;9.164;2023-05-23T11:28:16;4.90;;;3.47;;
751;SDS011;360;48.764;9.164;2023-05-23T11:30:45;4.10;;;3.20;;
751;SDS011;360;48.764;9.164;2023-05-23T11:33:14;4.50;;;3.37;;
751;SDS011;360;48.764;9.164;2023-05-23T11:35:43;3.70;;;3.07;;
751;SDS011;360;48.764;9.164;2023-05-23T11:38:12;4.23;;;3.37;;
751;SDS011;360;48.764;9.164;2023-05-23T11:40:40;6.30;;;4.33;;
751;SDS011;360;48.764;9.164;2023-05-23T11:43:09;4.40;;;3.70;;
751;SDS011;360;48.764;9.164;2023-05-23T11:45:37;4.60;;;3.60;;
751;SDS011;360;48.764;9.164;2023-05-23T11:48:04;4.90;;;4.27;;
751;SDS011;360;48.764;9.164;2023-05-23T11:50:33;5.53;;;4.10;;
751;SDS011;360;48.764;9.164;2023-05-23T11:53:00;6.00;;;4.17;;
751;SDS011;360;48.764;9.164;2023-05-23T11:55:28;4.90;;;3.90;;
751;SDS011;360;48.764;9.164;2023-05-23T11:57:56;4.00;;;3.60;;
751;SDS011;360;48.764;9.164;2023-05-23T12:00:23;5.87;;;4.60;;
751;SDS011;360;48.764;9.164;2023-05-23T12:02:50;4.50;;;3.20;;
751;SDS011;360;48.764;9.164;2023-05-23T12:05:16;7.40;;;4.50;;
751;SDS011;360;48.764;9.164;2023-05-23T12:07:43;5.57;;;3.97;;
751;SDS011;360;48.764;9.164;2023-05-23T12:10:14;5.10;;;4.10;;
751;SDS011;360;48.764;9.164;2023-05-23T12:12:43;5.37;;;3.60;;
751;SDS011;360;48.764;9.164;2023-05-23T12:15:11;4.00;;;3.60;;
751;SDS011;360;48.764;9.164;2023-05-23T12:17:38;5.40;;;3.83;;
751;SDS011;360;48.764;9.164;2023-05-23T12:20:09;4.57;;;4.13;;
751;SDS011;360;48.764;9.164;2023-05-23T12:22:37;4.53;;;3.57;;
751;SDS011;360;48.764;9.164;2023-05-23T12:25:06;5.50;;;4.40;;
751;SDS011;360;48.764;9.164;2023-05-23T12:27:34;5.13;;;3.50;;
751;SDS011;360;48.764;9.164;2023-05-23T12:30:06;4.03;;;3.30;;
751;SDS011;360;48.764;9.164;2023-05-23T12:32:38;5.70;;;3.37;;
751;SDS011;360;48.764;9.164;2023-05-23T12:35:06;3.90;;;3.20;;
751;SDS011;360;48.764;9.164;2023-05-23T12:37:33;5.13;;;3.73;;
751;SDS011;360;48.764;9.164;2023-05-23T12:40:11;4.13;;;3.40;;
751;SDS011;360;48.764;9.164;2023-05-23T12:42:51;3.60;;;2.50;;
751;SDS011;360;48.764;9.164;2023-05-23T12:45:21;4.03;;;3.10;;
751;SDS011;360;48.764;9.164;2023-05-23T12:47:48;4.43;;;3.60;;
751;SDS011;360;48.764;9.164;2023-05-23T12:50:15;4.07;;;3.20;;
751;SDS011;360;48.764;9.164;2023-05-23T12:52:42;3.93;;;3.27;;
751;SDS011;360;48.764;9.164;2023-05-23T12:55:09;4.17;;;3.33;;
751;SDS011;360;48.764;9.164;2023-05-23T12:57:37;4.60;;;3.30;;
751;SDS011;360;48.764;9.164;2023-05-23T13:00:04;3.47;;;2.60;;
751;SDS011;360;48.764;9.164;2023-05-23T13:02:33;4.23;;;3.57;;
751;SDS011;360;48.764;9.164;2023-05-23T13:05:00;3.37;;;2.50;;
751;SDS011;360;48.764;9.164;2023-05-23T13:07:27;3.13;;;2.17;;
751;SDS011;360;48.764;9.164;2023-05-23T13:09:55;5.00;;;3.47;;
751;SDS011;360;48.764;9.164;2023-05-23T13:12:22;3.37;;;2.53;;
751;SDS011;360;48.764;9.164;2023-05-23T13:14:49;5.17;;;2.80;;
751;SDS011;360;48.764;9.164;2023-05-23T13:17:16;3.50;;;3.07;;
751;SDS011;360;48.764;9.164;2023-05-23T13:19:44;4.00;;;3.33;;
751;SDS011;360;48.764;9.164;2023-05-23T13:22:11;4.60;;;2.70;;
751;SDS011;360;48.764;9.164;2023-05-23T13:24:38;2.80;;;2.13;;
751;SDS011;360;48.764;9.164;2023-05-23T13:27:08;3.77;;;2.80;;
751;SDS011;360;48.764;9.164;2023-05-23T13:29:34;2.70;;;2.30;;
751;SDS011;360;48.764;9.164;2023-05-23T13:32:01;3.13;;;2.33;;
751;SDS011;360;48.764;9.164;2023-05-23T13:34:28;2.50;;;2.07;;
751;SDS011;360;48.764;9.164;2023-05-23T13:36:56;3.17;;;2.30;;
751;SDS011;360;48.764;9.164;2023-05-23T13:39:23;2.93;;;2.50;;
751;SDS011;360;48.764;9.164;2023-05-23T13:41:50;2.60;;;2.13;;
751;SDS011;360;48.764;9.164;2023-05-23T13:44:17;3.77;;;2.50;;
751;SDS011;360;48.764;9.164;2023-05-23T13:46:43;2.83;;;2.43;;
751;SDS011;360;48.764;9.164;2023-05-23T13:49:10;2.53;;;2.33;;
751;SDS011;360;48.764;9.164;2023-05-23T13:51:37;3.03;;;2.47;;
751;SDS011;360;48.764;9.164;2023-05-23T13:54:05;2.87;;;2.57;;
751;SDS011;360;48.764;9.164;2023-05-23T13:56:32;2.83;;;2.23;;
751;SDS011;360;48.764;9.164;2023-05-23T13:58:59;2.50;;;1.80;;
751;SDS011;360;48.764;9.164;2023-05-23T14:01:26;2.03;;;1.50;;
751;SDS011;360;48.764;9.164;2023-05-23T14:03:53;3.53;;;2.23;;
751;SDS011;360;48.764;9.164;2023-05-23T14:06:20;2.77;;;2.00;;
751;SDS011;360;48.764;9.164;2023-05-23T14:08:47;2.63;;;2.13;;
751;SDS011;360;48.764;9.164;2023-05-23T14:11:15;3.97;;;2.83;;
751;SDS011;360;48.764;9.164;2023-05-23T14:13:42;4.40;;;2.27;;
751;SDS011;360;48.764;9.164;2023-05-23T14:16:09;2.80;;;2.03;;
751;SDS011;360;48.764;9.164;2023-05-23T14:18:35;2.93;;;2.60;;
751;SDS011;360;48.764;9.164;2023-05-23T14:21:02;3.80;;;2.30;;
751;SDS011;360;48.764;9.164;2023-05-23T14:23:30;3.57;;;2.67;;
751;SDS011;360;48.764;9.164;2023-05-23T14:25:57;4.50;;;2.57;;
751;SDS011;360;48.764;9.164;2023-05-23T14:28:25;2.27;;;1.87;;
751;SDS011;360;48.764;9.164;2023-05-23T14:30:52;5.33;;;2.67;;
751;SDS011;360;48.764;9.164;2023-05-23T14:33:19;2.53;;;1.80;;
751;SDS011;360;48.764;9.164;2023-05-23T14:35:47;3.07;;;2.30;;
751;SDS011;360;48.764;9.164;2023-05-23T14:38:14;2.90;;;1.80;;
751;SDS011;360;48.764;9.164;2023-05-23T14:40:42;3.00;;;2.50;;
751;SDS011;360;48.764;9.164;2023-05-23T14:43:09;2.90;;;2.20;;
751;SDS011;360;48.764;9.164;2023-05-23T14:45:37;3.00;;;2.37;;
751;SDS011;360;48.764;9.164;2023-05-23T14:48:08;2.43;;;2.00;;
751;SDS011;360;48.764;9.164;2023-05-23T14:50:35;3.10;;;2.63;;
751;SDS011;360;48.764;9.164;2023-05-23T14:53:02;2.33;;;1.80;;
751;SDS011;360;48.764;9.164;2023-05-23T14:55:29;2.40;;;1.80;;
751;SDS011;360;48.764;9.164;2023-05-23T14:57:56;2.50;;;2.30;;
751;SDS011;360;48.764;9.164;2023-05-23T15:00:24;2.93;;;2.47;;
751;SDS011;360;48.764;9.164;2023-05-23T15:02:52;2.30;;;2.00;;
751;SDS011;360;48.764;9.164;2023-05-23T15:05:20;2.63;;;2.37;;
751;SDS011;360;48.764;9.164;2023-05-23T15:07:47;3.00;;;2.03;;
751;SDS011;360;48.764;9.164;2023-05-23T15:10:13;2.50;;;2.10;;
751;SDS011;360;48.764;9.164;2023-05-23T15:12:40;3.27;;;2.40;;
751;SDS011;360;48.764;9.164;2023-05-23T15:15:07;2.83;;;2.20;;
751;SDS011;360;48.764;9.164;2023-05-23T15:17:34;2.67;;;2.07;;
751;SDS011;360;48.764;9.164;2023-05-23T15:20:03;3.60;;;3.07;;
751;SDS011;360;48.764;9.164;2023-05-23T15:22:30;3.80;;;2.27;;
751;SDS011;360;48.764;9.164;2023-05-23T15:24:57;2.20;;;1.87;;
751;SDS011;360;48.764;9.164;2023-05-23T15:27:24;2.37;;;2.00;;
751;SDS011;360;48.764;9.164;2023-05-23T15:29:51;2.73;;;2.10;;
751;SDS011;360;48.764;9.164;2023-05-23T15:32:18;2.40;;;2.10;;
751;SDS011;360;48.764;9.164;2023-05-23T15:34:45;4.33;;;1.77;;
751;SDS011;360;48.764;9.164;2023-05-23T15:37:14;3.40;;;2.03;;